Borup, Minnesota
Current Conditions -  °F | °C
As of 8:53 AM on Friday 24 Oct 2014 (Local Time) from KFAR Reporting Station
Clear Clear  
Wind Chill: 41°   Ceiling: Unl
Heat Index: 46°   Visibility: 10mi
Dew Point: 41°   Wind: 9mph
Humidity: 83%   Direction: 190°S
Pressure: 29.81"   Gusts: NA
Location:  47.18°N, 96.51°W
Report Text: KFAR 241353Z 19008KT 10SM CLR 08/05 A2981 RMK AO2 SLP097 T00780050
Loading
Personal Weather Stations






























Interactive Weather Map
Tropical Storm Tracking
New forecast layout! Learn more

10-Day Weather Forecast

Advertisements
Track Severe Weather on mobile